sensor_id;sensor_type;location;lat;lon;timestamp;temperature;humidity
32201;DHT22;18701;45.588;5.288;2023-07-29T00:01:27;25.90;99.90
32201;DHT22;18701;45.588;5.288;2023-07-29T00:03:52;26.00;99.90
32201;DHT22;18701;45.588;5.288;2023-07-29T00:06:18;26.00;99.90
32201;DHT22;18701;45.588;5.288;2023-07-29T00:08:44;26.00;99.90
32201;DHT22;18701;45.588;5.288;2023-07-29T00:11:09;25.90;99.90
32201;DHT22;18701;45.588;5.288;2023-07-29T00:13:35;26.00;99.90
32201;DHT22;18701;45.588;5.288;2023-07-29T00:16:00;26.10;99.90
32201;DHT22;18701;45.588;5.288;2023-07-29T00:18:26;25.90;99.90
32201;DHT22;18701;45.588;5.288;2023-07-29T00:20:53;25.70;99.90
32201;DHT22;18701;45.588;5.288;2023-07-29T00:23:18;25.80;99.90
32201;DHT22;18701;45.588;5.288;2023-07-29T00:25:44;25.60;99.90
32201;DHT22;18701;45.588;5.288;2023-07-29T00:28:11;25.50;99.90
32201;DHT22;18701;45.588;5.288;2023-07-29T00:30:37;25.40;99.90
32201;DHT22;18701;45.588;5.288;2023-07-29T00:33:03;25.30;99.90
32201;DHT22;18701;45.588;5.288;2023-07-29T00:35:28;25.20;99.90
32201;DHT22;18701;45.588;5.288;2023-07-29T00:37:54;25.40;99.90
32201;DHT22;18701;45.588;5.288;2023-07-29T00:40:20;25.30;99.90
32201;DHT22;18701;45.588;5.288;2023-07-29T00:42:46;25.50;99.90
32201;DHT22;18701;45.588;5.288;2023-07-29T00:45:12;25.40;99.90
32201;DHT22;18701;45.588;5.288;2023-07-29T00:47:38;25.10;99.90
32201;DHT22;18701;45.588;5.288;2023-07-29T00:50:05;25.20;99.90
32201;DHT22;18701;45.588;5.288;2023-07-29T00:52:32;25.10;99.90
32201;DHT22;18701;45.588;5.288;2023-07-29T00:54:57;25.10;99.90
32201;DHT22;18701;45.588;5.288;2023-07-29T00:57:23;25.00;99.90
32201;DHT22;18701;45.588;5.288;2023-07-29T00:59:51;24.90;99.90
32201;DHT22;18701;45.588;5.288;2023-07-29T01:02:16;25.00;99.90
32201;DHT22;18701;45.588;5.288;2023-07-29T01:04:42;24.90;99.90
32201;DHT22;18701;45.588;5.288;2023-07-29T01:10:06;24.80;99.90
32201;DHT22;18701;45.588;5.288;2023-07-29T01:15:22;25.00;99.90
32201;DHT22;18701;45.588;5.288;2023-07-29T01:17:53;25.10;99.90
32201;DHT22;18701;45.588;5.288;2023-07-29T01:20:20;25.10;99.90
32201;DHT22;18701;45.588;5.288;2023-07-29T01:22:46;25.00;99.90
32201;DHT22;18701;45.588;5.288;2023-07-29T01:25:13;25.00;99.90
32201;DHT22;18701;45.588;5.288;2023-07-29T01:27:40;24.90;99.90
32201;DHT22;18701;45.588;5.288;2023-07-29T01:30:06;24.90;99.90
32201;DHT22;18701;45.588;5.288;2023-07-29T01:32:54;24.90;99.90
32201;DHT22;18701;45.588;5.288;2023-07-29T01:35:31;25.00;99.90
32201;DHT22;18701;45.588;5.288;2023-07-29T01:38:19;24.90;99.90
32201;DHT22;18701;45.588;5.288;2023-07-29T01:40:47;24.80;99.90
32201;DHT22;18701;45.588;5.288;2023-07-29T01:43:13;24.70;99.90
32201;DHT22;18701;45.588;5.288;2023-07-29T01:45:40;24.70;99.90
32201;DHT22;18701;45.588;5.288;2023-07-29T01:48:06;24.70;99.90
32201;DHT22;18701;45.588;5.288;2023-07-29T01:50:32;24.70;99.90
32201;DHT22;18701;45.588;5.288;2023-07-29T01:52:58;24.70;99.90
32201;DHT22;18701;45.588;5.288;2023-07-29T01:55:24;24.80;99.90
32201;DHT22;18701;45.588;5.288;2023-07-29T01:57:50;24.90;99.90
32201;DHT22;18701;45.588;5.288;2023-07-29T02:00:17;24.90;99.90
32201;DHT22;18701;45.588;5.288;2023-07-29T02:02:43;24.80;99.90
32201;DHT22;18701;45.588;5.288;2023-07-29T02:05:08;24.80;99.90
32201;DHT22;18701;45.588;5.288;2023-07-29T02:07:34;24.70;99.90
32201;DHT22;18701;45.588;5.288;2023-07-29T02:09:59;24.60;99.90
32201;DHT22;18701;45.588;5.288;2023-07-29T02:12:25;24.70;99.90
32201;DHT22;18701;45.588;5.288;2023-07-29T02:14:50;24.70;99.90
32201;DHT22;18701;45.588;5.288;2023-07-29T02:17:16;24.60;99.90
32201;DHT22;18701;45.588;5.288;2023-07-29T02:19:42;24.50;99.90
32201;DHT22;18701;45.588;5.288;2023-07-29T02:22:08;24.40;99.90
32201;DHT22;18701;45.588;5.288;2023-07-29T02:24:33;24.30;99.90
32201;DHT22;18701;45.588;5.288;2023-07-29T02:26:59;24.30;99.90
32201;DHT22;18701;45.588;5.288;2023-07-29T02:29:24;24.40;99.90
32201;DHT22;18701;45.588;5.288;2023-07-29T02:31:50;24.30;99.90
32201;DHT22;18701;45.588;5.288;2023-07-29T02:34:16;24.40;99.90
32201;DHT22;18701;45.588;5.288;2023-07-29T02:36:42;24.40;99.90
32201;DHT22;18701;45.588;5.288;2023-07-29T02:39:07;24.50;99.90
32201;DHT22;18701;45.588;5.288;2023-07-29T02:41:33;24.40;99.90
32201;DHT22;18701;45.588;5.288;2023-07-29T02:43:59;24.30;99.90
32201;DHT22;18701;45.588;5.288;2023-07-29T02:46:24;24.30;99.90
32201;DHT22;18701;45.588;5.288;2023-07-29T02:48:50;24.30;99.90
32201;DHT22;18701;45.588;5.288;2023-07-29T02:51:16;24.40;99.90
32201;DHT22;18701;45.588;5.288;2023-07-29T02:53:41;24.20;99.90
32201;DHT22;18701;45.588;5.288;2023-07-29T02:56:07;24.30;99.90
32201;DHT22;18701;45.588;5.288;2023-07-29T02:58:34;24.30;99.90
32201;DHT22;18701;45.588;5.288;2023-07-29T03:01:03;24.30;99.90
32201;DHT22;18701;45.588;5.288;2023-07-29T03:03:30;24.30;99.90
32201;DHT22;18701;45.588;5.288;2023-07-29T03:06:03;24.20;99.90
32201;DHT22;18701;45.588;5.288;2023-07-29T03:08:29;24.20;99.90
32201;DHT22;18701;45.588;5.288;2023-07-29T03:10:56;24.10;99.90
32201;DHT22;18701;45.588;5.288;2023-07-29T03:13:22;24.20;99.90
32201;DHT22;18701;45.588;5.288;2023-07-29T03:15:47;24.30;99.90
32201;DHT22;18701;45.588;5.288;2023-07-29T03:18:13;24.30;99.90
32201;DHT22;18701;45.588;5.288;2023-07-29T03:20:39;24.30;99.90
32201;DHT22;18701;45.588;5.288;2023-07-29T03:23:04;24.10;99.90
32201;DHT22;18701;45.588;5.288;2023-07-29T03:25:30;24.20;99.90
32201;DHT22;18701;45.588;5.288;2023-07-29T03:27:55;24.10;99.90
32201;DHT22;18701;45.588;5.288;2023-07-29T03:30:21;24.00;99.90
32201;DHT22;18701;45.588;5.288;2023-07-29T03:32:48;24.00;99.90
32201;DHT22;18701;45.588;5.288;2023-07-29T03:35:14;24.10;99.90
32201;DHT22;18701;45.588;5.288;2023-07-29T03:37:40;24.20;99.90
32201;DHT22;18701;45.588;5.288;2023-07-29T03:40:06;24.00;99.90
32201;DHT22;18701;45.588;5.288;2023-07-29T03:42:33;24.00;99.90
32201;DHT22;18701;45.588;5.288;2023-07-29T03:44:58;24.00;99.90
32201;DHT22;18701;45.588;5.288;2023-07-29T03:47:24;23.90;99.90
32201;DHT22;18701;45.588;5.288;2023-07-29T03:49:50;23.90;99.90
32201;DHT22;18701;45.588;5.288;2023-07-29T03:52:15;24.00;99.90
32201;DHT22;18701;45.588;5.288;2023-07-29T03:54:41;23.90;99.90
32201;DHT22;18701;45.588;5.288;2023-07-29T03:57:07;23.70;99.90
32201;DHT22;18701;45.588;5.288;2023-07-29T03:59:32;23.80;99.90
32201;DHT22;18701;45.588;5.288;2023-07-29T04:01:58;24.00;99.90
32201;DHT22;18701;45.588;5.288;2023-07-29T04:04:24;23.90;99.90
32201;DHT22;18701;45.588;5.288;2023-07-29T04:06:49;23.90;99.90
32201;DHT22;18701;45.588;5.288;2023-07-29T04:09:15;23.90;99.90
32201;DHT22;18701;45.588;5.288;2023-07-29T04:11:41;23.90;99.90
32201;DHT22;18701;45.588;5.288;2023-07-29T04:14:06;23.90;99.90
32201;DHT22;18701;45.588;5.288;2023-07-29T04:16:32;23.90;99.90
32201;DHT22;18701;45.588;5.288;2023-07-29T04:18:57;23.80;99.90
32201;DHT22;18701;45.588;5.288;2023-07-29T04:21:23;23.80;99.90
32201;DHT22;18701;45.588;5.288;2023-07-29T04:23:48;23.70;99.90
32201;DHT22;18701;45.588;5.288;2023-07-29T04:26:14;23.90;99.90
32201;DHT22;18701;45.588;5.288;2023-07-29T04:28:40;24.00;99.90
32201;DHT22;18701;45.588;5.288;2023-07-29T04:31:05;24.10;99.90
32201;DHT22;18701;45.588;5.288;2023-07-29T04:33:31;24.00;99.90
32201;DHT22;18701;45.588;5.288;2023-07-29T04:35:57;24.10;99.90
32201;DHT22;18701;45.588;5.288;2023-07-29T04:38:24;24.20;99.90
32201;DHT22;18701;45.588;5.288;2023-07-29T04:40:50;24.10;99.90
32201;DHT22;18701;45.588;5.288;2023-07-29T04:43:15;24.10;99.90
32201;DHT22;18701;45.588;5.288;2023-07-29T04:45:44;24.10;99.90
32201;DHT22;18701;45.588;5.288;2023-07-29T04:48:09;24.00;99.90
32201;DHT22;18701;45.588;5.288;2023-07-29T04:50:35;24.00;99.90
32201;DHT22;18701;45.588;5.288;2023-07-29T04:53:01;23.90;99.90
32201;DHT22;18701;45.588;5.288;2023-07-29T04:55:26;24.00;99.90
32201;DHT22;18701;45.588;5.288;2023-07-29T04:57:52;24.10;99.90
32201;DHT22;18701;45.588;5.288;2023-07-29T05:00:17;24.10;99.90
32201;DHT22;18701;45.588;5.288;2023-07-29T05:02:43;24.20;99.90
32201;DHT22;18701;45.588;5.288;2023-07-29T05:05:09;24.10;99.90
32201;DHT22;18701;45.588;5.288;2023-07-29T05:07:34;24.20;99.90
32201;DHT22;18701;45.588;5.288;2023-07-29T05:10:00;24.10;99.90
32201;DHT22;18701;45.588;5.288;2023-07-29T05:12:25;24.10;99.90
32201;DHT22;18701;45.588;5.288;2023-07-29T05:14:51;24.00;99.90
32201;DHT22;18701;45.588;5.288;2023-07-29T05:17:17;24.10;99.90
32201;DHT22;18701;45.588;5.288;2023-07-29T05:19:42;24.30;99.90
32201;DHT22;18701;45.588;5.288;2023-07-29T05:22:08;24.30;99.90
32201;DHT22;18701;45.588;5.288;2023-07-29T05:24:33;24.30;99.90
32201;DHT22;18701;45.588;5.288;2023-07-29T05:26:59;24.30;99.90
32201;DHT22;18701;45.588;5.288;2023-07-29T05:29:24;24.20;99.90
32201;DHT22;18701;45.588;5.288;2023-07-29T05:31:50;24.30;99.90
32201;DHT22;18701;45.588;5.288;2023-07-29T05:34:15;24.40;99.90
32201;DHT22;18701;45.588;5.288;2023-07-29T05:36:41;24.50;99.90
32201;DHT22;18701;45.588;5.288;2023-07-29T05:39:07;24.50;99.90
32201;DHT22;18701;45.588;5.288;2023-07-29T05:41:32;24.40;99.90
32201;DHT22;18701;45.588;5.288;2023-07-29T05:43:58;24.40;99.90
32201;DHT22;18701;45.588;5.288;2023-07-29T05:46:24;24.40;99.90
32201;DHT22;18701;45.588;5.288;2023-07-29T05:48:49;24.20;99.90
32201;DHT22;18701;45.588;5.288;2023-07-29T05:51:16;24.40;99.90
32201;DHT22;18701;45.588;5.288;2023-07-29T05:53:42;24.40;99.90
32201;DHT22;18701;45.588;5.288;2023-07-29T05:56:07;24.40;99.90
32201;DHT22;18701;45.588;5.288;2023-07-29T05:58:33;24.40;99.90
32201;DHT22;18701;45.588;5.288;2023-07-29T06:00:59;24.50;99.90
32201;DHT22;18701;45.588;5.288;2023-07-29T06:03:24;24.40;99.90
32201;DHT22;18701;45.588;5.288;2023-07-29T06:05:50;24.40;99.90
32201;DHT22;18701;45.588;5.288;2023-07-29T06:08:16;24.40;99.90
32201;DHT22;18701;45.588;5.288;2023-07-29T06:10:41;24.40;99.90
32201;DHT22;18701;45.588;5.288;2023-07-29T06:13:07;24.50;99.90
32201;DHT22;18701;45.588;5.288;2023-07-29T06:15:32;24.40;99.90
32201;DHT22;18701;45.588;5.288;2023-07-29T06:17:58;24.50;99.90
32201;DHT22;18701;45.588;5.288;2023-07-29T06:20:23;24.60;99.90
32201;DHT22;18701;45.588;5.288;2023-07-29T06:22:49;24.60;99.90
32201;DHT22;18701;45.588;5.288;2023-07-29T06:25:15;24.70;99.90
32201;DHT22;18701;45.588;5.288;2023-07-29T06:27:40;24.80;99.90
32201;DHT22;18701;45.588;5.288;2023-07-29T06:30:06;24.90;99.90
32201;DHT22;18701;45.588;5.288;2023-07-29T06:32:32;25.00;99.90
32201;DHT22;18701;45.588;5.288;2023-07-29T06:34:57;24.90;99.90
32201;DHT22;18701;45.588;5.288;2023-07-29T06:37:23;24.90;99.90
32201;DHT22;18701;45.588;5.288;2023-07-29T06:39:49;25.00;99.90
32201;DHT22;18701;45.588;5.288;2023-07-29T06:42:14;24.90;99.90
32201;DHT22;18701;45.588;5.288;2023-07-29T06:44:40;25.00;99.90
32201;DHT22;18701;45.588;5.288;2023-07-29T06:47:06;25.00;99.90
32201;DHT22;18701;45.588;5.288;2023-07-29T06:49:31;24.90;99.90
32201;DHT22;18701;45.588;5.288;2023-07-29T06:51:57;24.90;99.90
32201;DHT22;18701;45.588;5.288;2023-07-29T06:54:25;24.90;99.90
32201;DHT22;18701;45.588;5.288;2023-07-29T06:56:52;24.90;99.90
32201;DHT22;18701;45.588;5.288;2023-07-29T06:59:17;24.90;99.90
32201;DHT22;18701;45.588;5.288;2023-07-29T07:01:43;24.90;99.90
32201;DHT22;18701;45.588;5.288;2023-07-29T07:04:08;24.90;99.90
32201;DHT22;18701;45.588;5.288;2023-07-29T07:06:34;24.90;99.90
32201;DHT22;18701;45.588;5.288;2023-07-29T07:09:00;25.00;99.90
32201;DHT22;18701;45.588;5.288;2023-07-29T07:11:25;24.90;99.90
32201;DHT22;18701;45.588;5.288;2023-07-29T07:13:51;24.90;99.90
32201;DHT22;18701;45.588;5.288;2023-07-29T07:16:16;25.10;99.90
32201;DHT22;18701;45.588;5.288;2023-07-29T07:18:42;24.90;99.90
32201;DHT22;18701;45.588;5.288;2023-07-29T07:21:07;24.80;99.90
32201;DHT22;18701;45.588;5.288;2023-07-29T07:23:33;25.10;99.90
32201;DHT22;18701;45.588;5.288;2023-07-29T07:25:59;25.20;99.90
32201;DHT22;18701;45.588;5.288;2023-07-29T07:28:24;25.40;99.90
32201;DHT22;18701;45.588;5.288;2023-07-29T07:30:50;25.50;99.90
32201;DHT22;18701;45.588;5.288;2023-07-29T07:33:15;25.50;99.90
32201;DHT22;18701;45.588;5.288;2023-07-29T07:35:41;25.60;99.90
32201;DHT22;18701;45.588;5.288;2023-07-29T07:38:08;25.50;99.90
32201;DHT22;18701;45.588;5.288;2023-07-29T07:40:35;25.60;99.90
32201;DHT22;18701;45.588;5.288;2023-07-29T07:43:01;25.50;99.90
32201;DHT22;18701;45.588;5.288;2023-07-29T07:45:26;25.60;99.90
32201;DHT22;18701;45.588;5.288;2023-07-29T07:47:52;25.60;99.90
32201;DHT22;18701;45.588;5.288;2023-07-29T07:50:21;25.60;99.90
32201;DHT22;18701;45.588;5.288;2023-07-29T07:52:47;25.50;99.90
32201;DHT22;18701;45.588;5.288;2023-07-29T07:55:12;25.60;99.90
32201;DHT22;18701;45.588;5.288;2023-07-29T07:57:38;25.60;99.90
32201;DHT22;18701;45.588;5.288;2023-07-29T08:00:04;25.60;99.90
32201;DHT22;18701;45.588;5.288;2023-07-29T08:02:30;25.60;99.90
32201;DHT22;18701;45.588;5.288;2023-07-29T08:04:55;25.70;99.90
32201;DHT22;18701;45.588;5.288;2023-07-29T08:07:21;25.60;99.90
32201;DHT22;18701;45.588;5.288;2023-07-29T08:09:47;25.60;99.90
32201;DHT22;18701;45.588;5.288;2023-07-29T08:12:12;25.60;99.90
32201;DHT22;18701;45.588;5.288;2023-07-29T08:14:38;25.60;99.90
32201;DHT22;18701;45.588;5.288;2023-07-29T08:17:04;25.60;99.90
32201;DHT22;18701;45.588;5.288;2023-07-29T08:19:29;25.60;99.90
32201;DHT22;18701;45.588;5.288;2023-07-29T08:21:55;25.70;99.90
32201;DHT22;18701;45.588;5.288;2023-07-29T08:24:21;25.90;99.90
32201;DHT22;18701;45.588;5.288;2023-07-29T08:26:46;25.70;99.90
32201;DHT22;18701;45.588;5.288;2023-07-29T08:29:12;25.70;99.90
32201;DHT22;18701;45.588;5.288;2023-07-29T08:31:38;25.70;99.90
32201;DHT22;18701;45.588;5.288;2023-07-29T08:34:04;25.60;99.90
32201;DHT22;18701;45.588;5.288;2023-07-29T08:36:29;25.60;99.90
32201;DHT22;18701;45.588;5.288;2023-07-29T08:38:55;25.70;99.90
32201;DHT22;18701;45.588;5.288;2023-07-29T08:41:35;25.60;99.90
32201;DHT22;18701;45.588;5.288;2023-07-29T08:44:23;25.60;99.90
32201;DHT22;18701;45.588;5.288;2023-07-29T08:46:50;25.60;99.90
32201;DHT22;18701;45.588;5.288;2023-07-29T08:49:17;25.60;99.90
32201;DHT22;18701;45.588;5.288;2023-07-29T08:51:45;25.70;99.90
32201;DHT22;18701;45.588;5.288;2023-07-29T08:54:12;25.60;99.90
32201;DHT22;18701;45.588;5.288;2023-07-29T08:56:40;25.50;99.90
32201;DHT22;18701;45.588;5.288;2023-07-29T08:59:07;25.50;99.90
32201;DHT22;18701;45.588;5.288;2023-07-29T09:01:32;25.50;99.90
32201;DHT22;18701;45.588;5.288;2023-07-29T09:03:58;25.50;99.90
32201;DHT22;18701;45.588;5.288;2023-07-29T09:06:25;25.50;99.90
32201;DHT22;18701;45.588;5.288;2023-07-29T09:08:51;25.60;99.90
32201;DHT22;18701;45.588;5.288;2023-07-29T09:11:19;25.40;99.90
32201;DHT22;18701;45.588;5.288;2023-07-29T09:13:46;25.60;99.90
32201;DHT22;18701;45.588;5.288;2023-07-29T09:16:11;25.50;99.90
32201;DHT22;18701;45.588;5.288;2023-07-29T09:18:37;25.60;99.90
32201;DHT22;18701;45.588;5.288;2023-07-29T09:21:03;25.40;99.90
32201;DHT22;18701;45.588;5.288;2023-07-29T09:23:39;25.20;99.90
32201;DHT22;18701;45.588;5.288;2023-07-29T09:26:05;25.30;99.90
32201;DHT22;18701;45.588;5.288;2023-07-29T09:28:36;25.20;99.90
32201;DHT22;18701;45.588;5.288;2023-07-29T09:31:02;25.10;99.90
32201;DHT22;18701;45.588;5.288;2023-07-29T09:33:37;24.80;99.90
32201;DHT22;18701;45.588;5.288;2023-07-29T09:36:08;24.70;99.90
32201;DHT22;18701;45.588;5.288;2023-07-29T09:38:34;24.70;99.90
32201;DHT22;18701;45.588;5.288;2023-07-29T09:41:01;24.70;99.90
32201;DHT22;18701;45.588;5.288;2023-07-29T09:43:34;24.70;99.90
32201;DHT22;18701;45.588;5.288;2023-07-29T09:46:05;24.80;99.90
32201;DHT22;18701;45.588;5.288;2023-07-29T09:48:36;24.40;99.90
32201;DHT22;18701;45.588;5.288;2023-07-29T09:51:12;24.70;99.90
32201;DHT22;18701;45.588;5.288;2023-07-29T09:53:46;24.50;99.90
32201;DHT22;18701;45.588;5.288;2023-07-29T09:56:12;24.70;99.90
32201;DHT22;18701;45.588;5.288;2023-07-29T09:58:38;24.80;99.90
32201;DHT22;18701;45.588;5.288;2023-07-29T10:01:08;24.80;99.90
32201;DHT22;18701;45.588;5.288;2023-07-29T10:03:34;24.80;99.90
32201;DHT22;18701;45.588;5.288;2023-07-29T10:06:05;24.90;99.90
32201;DHT22;18701;45.588;5.288;2023-07-29T10:08:31;25.00;99.90
32201;DHT22;18701;45.588;5.288;2023-07-29T10:11:08;25.00;99.90
32201;DHT22;18701;45.588;5.288;2023-07-29T10:13:34;25.00;99.90
32201;DHT22;18701;45.588;5.288;2023-07-29T10:16:00;25.00;99.90
32201;DHT22;18701;45.588;5.288;2023-07-29T10:18:30;25.30;99.90
32201;DHT22;18701;45.588;5.288;2023-07-29T10:20:57;25.20;99.90
32201;DHT22;18701;45.588;5.288;2023-07-29T10:23:25;25.50;99.90
32201;DHT22;18701;45.588;5.288;2023-07-29T10:26:04;25.40;99.90
32201;DHT22;18701;45.588;5.288;2023-07-29T10:28:31;25.60;99.90
32201;DHT22;18701;45.588;5.288;2023-07-29T10:30:58;25.80;99.90
32201;DHT22;18701;45.588;5.288;2023-07-29T10:33:24;25.50;99.90
32201;DHT22;18701;45.588;5.288;2023-07-29T10:35:51;25.50;99.90
32201;DHT22;18701;45.588;5.288;2023-07-29T10:38:18;25.60;99.90
32201;DHT22;18701;45.588;5.288;2023-07-29T10:40:55;25.40;99.90
32201;DHT22;18701;45.588;5.288;2023-07-29T10:43:32;25.30;99.90
32201;DHT22;18701;45.588;5.288;2023-07-29T10:46:18;25.50;99.90
32201;DHT22;18701;45.588;5.288;2023-07-29T10:48:51;25.30;99.90
32201;DHT22;18701;45.588;5.288;2023-07-29T10:51:29;25.10;99.90
32201;DHT22;18701;45.588;5.288;2023-07-29T10:54:02;24.80;99.90
32201;DHT22;18701;45.588;5.288;2023-07-29T10:56:32;24.70;99.90
32201;DHT22;18701;45.588;5.288;2023-07-29T11:01:43;24.90;99.90
32201;DHT22;18701;45.588;5.288;2023-07-29T11:04:25;25.00;99.90
32201;DHT22;18701;45.588;5.288;2023-07-29T11:12:34;25.10;99.90
32201;DHT22;18701;45.588;5.288;2023-07-29T11:17:34;25.10;99.90
32201;DHT22;18701;45.588;5.288;2023-07-29T11:20:01;25.00;99.90
32201;DHT22;18701;45.588;5.288;2023-07-29T11:22:29;25.00;99.90
32201;DHT22;18701;45.588;5.288;2023-07-29T11:24:54;24.80;99.90
32201;DHT22;18701;45.588;5.288;2023-07-29T11:27:20;24.90;99.90
32201;DHT22;18701;45.588;5.288;2023-07-29T11:29:47;24.90;99.90
32201;DHT22;18701;45.588;5.288;2023-07-29T11:32:13;24.90;99.90
32201;DHT22;18701;45.588;5.288;2023-07-29T11:34:38;24.80;99.90
32201;DHT22;18701;45.588;5.288;2023-07-29T11:37:05;24.80;99.90
32201;DHT22;18701;45.588;5.288;2023-07-29T11:39:32;24.80;99.90
32201;DHT22;18701;45.588;5.288;2023-07-29T11:41:58;24.90;99.90
32201;DHT22;18701;45.588;5.288;2023-07-29T11:44:24;24.80;99.90
32201;DHT22;18701;45.588;5.288;2023-07-29T11:46:50;24.90;99.90
32201;DHT22;18701;45.588;5.288;2023-07-29T11:49:16;24.90;99.90
32201;DHT22;18701;45.588;5.288;2023-07-29T11:51:42;24.80;99.90
32201;DHT22;18701;45.588;5.288;2023-07-29T11:54:08;24.70;99.90
32201;DHT22;18701;45.588;5.288;2023-07-29T11:56:34;24.70;99.90
32201;DHT22;18701;45.588;5.288;2023-07-29T11:59:01;24.70;99.90
32201;DHT22;18701;45.588;5.288;2023-07-29T12:01:28;24.70;99.90
32201;DHT22;18701;45.588;5.288;2023-07-29T12:03:55;24.70;99.90
32201;DHT22;18701;45.588;5.288;2023-07-29T12:06:21;24.80;99.90
32201;DHT22;18701;45.588;5.288;2023-07-29T12:08:47;24.80;99.90
32201;DHT22;18701;45.588;5.288;2023-07-29T12:11:14;24.80;99.90
32201;DHT22;18701;45.588;5.288;2023-07-29T12:13:41;24.90;99.90
32201;DHT22;18701;45.588;5.288;2023-07-29T12:16:07;25.00;99.90
32201;DHT22;18701;45.588;5.288;2023-07-29T12:18:33;25.00;99.90
32201;DHT22;18701;45.588;5.288;2023-07-29T12:20:59;24.90;99.90
32201;DHT22;18701;45.588;5.288;2023-07-29T12:23:26;24.80;99.90
32201;DHT22;18701;45.588;5.288;2023-07-29T12:25:56;24.90;99.90
32201;DHT22;18701;45.588;5.288;2023-07-29T12:28:22;24.90;99.90
32201;DHT22;18701;45.588;5.288;2023-07-29T12:30:49;25.00;99.90
32201;DHT22;18701;45.588;5.288;2023-07-29T12:33:35;24.80;99.90
32201;DHT22;18701;45.588;5.288;2023-07-29T12:36:02;24.70;99.90
32201;DHT22;18701;45.588;5.288;2023-07-29T12:38:28;24.60;99.90
32201;DHT22;18701;45.588;5.288;2023-07-29T12:40:55;24.30;99.90
32201;DHT22;18701;45.588;5.288;2023-07-29T12:43:21;24.10;99.90
32201;DHT22;18701;45.588;5.288;2023-07-29T12:45:48;24.50;99.90
32201;DHT22;18701;45.588;5.288;2023-07-29T12:48:14;24.50;99.90
32201;DHT22;18701;45.588;5.288;2023-07-29T12:50:40;24.80;99.90
32201;DHT22;18701;45.588;5.288;2023-07-29T12:53:07;25.10;99.90
32201;DHT22;18701;45.588;5.288;2023-07-29T12:55:33;25.60;99.90
32201;DHT22;18701;45.588;5.288;2023-07-29T12:57:59;26.10;99.90
32201;DHT22;18701;45.588;5.288;2023-07-29T13:00:25;26.10;99.90
32201;DHT22;18701;45.588;5.288;2023-07-29T13:02:50;26.00;99.90
32201;DHT22;18701;45.588;5.288;2023-07-29T13:05:16;26.20;99.90
32201;DHT22;18701;45.588;5.288;2023-07-29T13:07:42;26.10;99.90
32201;DHT22;18701;45.588;5.288;2023-07-29T13:10:09;26.00;99.90
32201;DHT22;18701;45.588;5.288;2023-07-29T13:12:35;25.80;99.90
32201;DHT22;18701;45.588;5.288;2023-07-29T13:15:00;25.50;99.90
32201;DHT22;18701;45.588;5.288;2023-07-29T13:17:26;25.40;99.90
32201;DHT22;18701;45.588;5.288;2023-07-29T13:19:52;25.40;99.90
32201;DHT22;18701;45.588;5.288;2023-07-29T13:22:19;25.30;99.90
32201;DHT22;18701;45.588;5.288;2023-07-29T13:24:45;25.30;99.90
32201;DHT22;18701;45.588;5.288;2023-07-29T13:27:10;25.60;99.90
32201;DHT22;18701;45.588;5.288;2023-07-29T13:29:36;25.80;99.90
32201;DHT22;18701;45.588;5.288;2023-07-29T13:32:01;25.80;99.90
32201;DHT22;18701;45.588;5.288;2023-07-29T13:34:27;26.20;99.90
32201;DHT22;18701;45.588;5.288;2023-07-29T13:36:53;27.00;99.90
32201;DHT22;18701;45.588;5.288;2023-07-29T13:39:18;27.20;99.90
32201;DHT22;18701;45.588;5.288;2023-07-29T13:41:44;27.60;99.90
32201;DHT22;18701;45.588;5.288;2023-07-29T13:44:09;27.40;99.90
32201;DHT22;18701;45.588;5.288;2023-07-29T13:46:35;27.10;99.90
32201;DHT22;18701;45.588;5.288;2023-07-29T13:49:01;27.20;99.90
32201;DHT22;18701;45.588;5.288;2023-07-29T13:51:27;27.50;99.90
32201;DHT22;18701;45.588;5.288;2023-07-29T13:53:52;28.10;99.90
32201;DHT22;18701;45.588;5.288;2023-07-29T13:56:18;28.20;99.90
32201;DHT22;18701;45.588;5.288;2023-07-29T13:58:43;28.40;99.90
32201;DHT22;18701;45.588;5.288;2023-07-29T14:01:09;28.80;99.90
32201;DHT22;18701;45.588;5.288;2023-07-29T14:03:35;28.50;99.90
32201;DHT22;18701;45.588;5.288;2023-07-29T14:06:00;28.20;99.90
32201;DHT22;18701;45.588;5.288;2023-07-29T14:08:26;28.50;99.90
32201;DHT22;18701;45.588;5.288;2023-07-29T14:10:51;28.70;99.90
32201;DHT22;18701;45.588;5.288;2023-07-29T14:13:17;28.70;99.90
32201;DHT22;18701;45.588;5.288;2023-07-29T14:15:43;28.40;99.90
32201;DHT22;18701;45.588;5.288;2023-07-29T14:18:08;28.90;99.90
32201;DHT22;18701;45.588;5.288;2023-07-29T14:20:34;29.30;99.90
32201;DHT22;18701;45.588;5.288;2023-07-29T14:22:59;29.90;99.90
32201;DHT22;18701;45.588;5.288;2023-07-29T14:25:27;30.30;99.90
32201;DHT22;18701;45.588;5.288;2023-07-29T14:27:52;30.60;99.90
32201;DHT22;18701;45.588;5.288;2023-07-29T14:30:18;30.60;99.90
32201;DHT22;18701;45.588;5.288;2023-07-29T14:32:43;30.60;99.90
32201;DHT22;18701;45.588;5.288;2023-07-29T14:35:09;30.70;99.90
32201;DHT22;18701;45.588;5.288;2023-07-29T14:37:35;30.90;99.90
32201;DHT22;18701;45.588;5.288;2023-07-29T14:40:01;30.80;99.90
32201;DHT22;18701;45.588;5.288;2023-07-29T14:42:27;30.20;99.90
32201;DHT22;18701;45.588;5.288;2023-07-29T14:44:53;29.50;99.90
32201;DHT22;18701;45.588;5.288;2023-07-29T14:47:18;29.00;99.90
32201;DHT22;18701;45.588;5.288;2023-07-29T14:49:45;28.50;99.90
32201;DHT22;18701;45.588;5.288;2023-07-29T14:52:11;28.30;99.90
32201;DHT22;18701;45.588;5.288;2023-07-29T14:54:36;28.10;99.90
32201;DHT22;18701;45.588;5.288;2023-07-29T14:57:02;27.80;99.90
32201;DHT22;18701;45.588;5.288;2023-07-29T14:59:28;27.30;99.90
32201;DHT22;18701;45.588;5.288;2023-07-29T15:01:53;27.20;99.90
32201;DHT22;18701;45.588;5.288;2023-07-29T15:04:19;27.40;99.90
32201;DHT22;18701;45.588;5.288;2023-07-29T15:06:45;27.30;99.90
32201;DHT22;18701;45.588;5.288;2023-07-29T15:09:11;27.20;99.90
32201;DHT22;18701;45.588;5.288;2023-07-29T15:11:36;26.90;99.90
32201;DHT22;18701;45.588;5.288;2023-07-29T15:14:02;26.80;99.90
32201;DHT22;18701;45.588;5.288;2023-07-29T15:16:29;26.70;99.90
32201;DHT22;18701;45.588;5.288;2023-07-29T15:18:54;26.60;99.90
32201;DHT22;18701;45.588;5.288;2023-07-29T15:21:20;27.00;99.90
32201;DHT22;18701;45.588;5.288;2023-07-29T15:23:45;27.20;99.90
32201;DHT22;18701;45.588;5.288;2023-07-29T15:26:11;27.30;99.90
32201;DHT22;18701;45.588;5.288;2023-07-29T15:28:37;27.70;99.90
32201;DHT22;18701;45.588;5.288;2023-07-29T15:31:03;27.60;99.90
32201;DHT22;18701;45.588;5.288;2023-07-29T15:33:28;27.40;99.90
32201;DHT22;18701;45.588;5.288;2023-07-29T15:35:54;27.80;99.90
32201;DHT22;18701;45.588;5.288;2023-07-29T15:38:19;28.00;99.90
32201;DHT22;18701;45.588;5.288;2023-07-29T15:40:45;27.80;99.90
32201;DHT22;18701;45.588;5.288;2023-07-29T15:43:11;27.50;99.90